Date,TemperatureHighF,TemperatureAvgF,TemperatureLowF,DewpointHighF,DewpointAvgF,DewpointLowF,HumidityHigh,HumidityAvg,HumidityLow,PressureMaxIn,PressureMinIn,WindSpeedMaxMPH,WindSpeedAvgMPH,GustSpeedMaxMPH,PrecipitationSumIn
2013-1-1,32,15,7,-100,-100,-100,0,0,100,0.00,40.00,6,2,0,0.00
2013-1-2,16,9,1,-100,-100,-100,0,0,100,0.00,40.00,5,2,0,0.00
2013-1-3,30,17,-1,-100,-100,-100,0,0,100,0.00,40.00,9,3,0,0.00
2013-1-4,39,25,13,-100,-100,-100,0,0,100,0.00,40.00,12,5,0,0.00
2013-1-5,30,24,17,-100,-100,-100,0,0,100,0.00,40.00,7,3,0,0.00
2013-1-6,42,33,25,-100,-100,-100,0,0,100,0.00,40.00,12,4,0,0.00
2013-1-7,45,40,35,-100,-100,-100,0,0,100,0.00,40.00,21,14,0,0.00
2013-1-8,47,43,39,-100,-100,-100,0,0,100,0.00,40.00,16,12,0,0.00
2013-1-9,46,38,27,-100,-100,-100,0,0,100,0.00,40.00,16,9,0,0.00
2013-1-10,32,26,21,-100,-100,-100,0,0,100,0.00,40.00,8,4,0,0.00
2013-1-11,28,19,11,-100,-100,-100,0,0,100,0.00,40.00,6,3,0,0.00
2013-1-12,27,15,7,-100,-100,-100,0,0,100,0.00,40.00,6,4,0,0.00
2013-1-13,28,14,6,-100,-100,-100,0,0,100,0.00,40.00,6,3,0,0.00
2013-1-14,42,26,12,-100,-100,-100,0,0,100,0.00,40.00,9,5,0,0.00
2013-1-15,53,35,18,-100,-100,-100,0,0,100,0.00,40.00,7,3,0,0.00
2013-1-16,56,39,27,-100,-100,-100,0,0,100,0.00,40.00,8,5,0,0.00
2013-1-17,49,36,25,-100,-100,-100,0,0,100,0.00,40.00,8,4,0,0.00
2013-1-18,52,37,25,-100,-100,-100,0,0,100,0.00,40.00,7,4,0,0.00
2013-1-19,57,36,22,-100,-100,-100,0,0,100,0.00,40.00,7,3,0,0.00
2013-1-20,24,22,20,-100,-100,-100,0,0,100,0.00,40.00,2,2,0,0.00
2013-1-21,53,37,25,-100,-100,-100,0,0,100,0.00,40.00,8,4,0,0.00
2013-1-22,42,27,20,-100,-100,-100,0,0,100,0.00,40.00,7,3,0,0.00
2013-1-23,49,41,34,-100,-100,-100,0,0,100,0.00,40.00,12,6,0,0.00
2013-1-24,49,42,35,-100,-100,-100,0,0,100,0.00,40.00,13,6,0,0.00
2013-1-25,45,42,38,-100,-100,-100,0,0,100,0.00,40.00,10,6,0,0.00
2013-1-26,38,35,32,-100,-100,-100,0,0,100,0.00,40.00,10,6,0,0.00
2013-1-28,36,36,35,-100,-100,-100,0,0,100,0.00,40.00,15,12,0,0.00
2013-1-29,41,37,36,-100,-100,-100,0,0,100,0.00,40.00,15,12,0,0.00
2013-1-31,47,39,28,-100,-100,-100,0,0,100,0.00,40.00,7,4,0,0.00
2013-2-1,50,34,26,-100,-100,-100,0,0,100,0.00,40.00,5,3,0,0.00
2013-2-2,49,33,21,-100,-100,-100,0,0,100,0.00,40.00,5,2,0,0.00
2013-2-3,55,41,24,-100,-100,-100,0,0,100,0.00,40.00,9,5,0,0.00
2013-2-4,52,44,38,-100,-100,-100,0,0,100,0.00,40.00,9,5,0,0.00
2013-2-5,44,40,34,-100,-100,-100,0,0,100,0.00,40.00,16,7,0,0.00
2013-2-6,47,38,33,-100,-100,-100,0,0,100,0.00,40.00,13,7,0,0.00
2013-2-7,38,34,25,-100,-100,-100,0,0,100,0.00,40.00,12,5,0,0.00
2013-2-8,38,30,22,-100,-100,-100,0,0,100,0.00,40.00,9,4,0,0.00
2013-2-9,42,29,18,-100,-100,-100,0,0,100,0.00,40.00,6,4,0,0.00
2013-2-10,43,31,22,-100,-100,-100,0,0,100,0.00,40.00,6,3,0,0.00
2013-2-11,49,36,22,-100,-100,-100,0,0,100,0.00,40.00,8,5,0,0.00
2013-2-12,48,35,25,-100,-100,-100,0,0,100,0.00,40.00,7,4,0,0.00
2013-2-13,45,38,29,-100,-100,-100,0,0,100,0.00,40.00,8,4,0,0.00
2013-2-14,51,35,23,-100,-100,-100,0,0,100,0.00,40.00,7,3,0,0.00
2013-2-15,57,38,24,-100,-100,-100,0,0,100,0.00,40.00,5,3,0,0.00
2013-2-16,51,39,26,-100,-100,-100,0,0,100,0.00,40.00,14,8,0,0.00
2013-2-17,43,29,19,-100,-100,-100,0,0,100,0.00,40.00,5,3,0,0.00
2013-2-18,40,31,23,-100,-100,-100,0,0,100,0.00,40.00,8,4,0,0.00
2013-2-19,39,29,20,-100,-100,-100,0,0,100,0.00,40.00,7,4,0,0.00
2013-2-20,40,31,20,-100,-100,-100,0,0,100,0.00,40.00,6,4,0,0.00
2013-2-21,37,31,21,-100,-100,-100,0,0,100,0.00,40.00,14,8,0,0.00
2013-2-22,42,36,30,-100,-100,-100,0,0,100,0.00,40.00,21,13,0,0.00
2013-2-23,38,30,25,-100,-100,-100,0,0,100,0.00,40.00,10,6,0,0.00
2013-2-24,45,32,19,-100,-100,-100,0,0,100,0.00,40.00,10,5,0,0.00
2013-2-25,38,34,25,-100,-100,-100,0,0,100,0.00,40.00,16,10,0,0.00
2013-2-26,46,32,22,-100,-100,-100,0,0,100,0.00,40.00,9,5,0,0.00
2013-2-27,46,40,35,-100,-100,-100,0,0,100,0.00,40.00,12,7,0,0.00
2013-2-28,51,45,39,-100,-100,-100,0,0,100,0.00,40.00,13,10,0,0.00
2013-3-1,59,48,40,-100,-100,-100,0,0,100,0.00,40.00,9,7,0,0.00
2013-3-2,55,47,41,-100,-100,-100,0,0,100,0.00,40.00,12,7,0,0.00
2013-3-3,42,36,24,-100,-100,-100,0,0,100,0.00,40.00,8,4,0,0.00
2013-3-4,50,31,14,-100,-100,-100,0,0,100,0.00,40.00,6,3,0,0.00
2013-3-5,43,34,25,-100,-100,-100,0,0,100,0.00,40.00,6,3,0,0.00
2013-3-6,37,34,30,-100,-100,-100,0,0,100,0.00,40.00,15,7,0,0.00
2013-3-7,43,33,24,-100,-100,-100,0,0,100,0.00,40.00,8,4,0,0.00
2013-3-8,43,32,24,-100,-100,-100,0,0,100,0.00,40.00,6,3,0,0.00
2013-3-9,52,33,21,-100,-100,-100,0,0,100,0.00,40.00,7,4,0,0.00
2013-3-10,59,42,27,-100,-100,-100,0,0,100,0.00,40.00,8,4,0,0.00
2013-3-11,54,44,36,-100,-100,-100,0,0,100,0.00,40.00,7,4,0,0.00
2013-3-12,61,49,34,-100,-100,-100,0,0,100,0.00,40.00,9,6,0,0.00
2013-3-13,64,51,42,-100,-100,-100,0,0,100,0.00,40.00,10,6,0,0.00
2013-3-14,63,48,34,-100,-100,-100,0,0,100,0.00,40.00,12,7,0,0.00
2013-3-15,57,47,37,-100,-100,-100,0,0,100,0.00,40.00,8,5,0,0.00
2013-3-16,49,41,32,-100,-100,-100,0,0,100,0.00,40.00,17,11,0,0.00
2013-3-17,41,34,29,-100,-100,-100,0,0,100,0.00,40.00,13,6,0,0.00
2013-3-18,50,36,27,-100,-100,-100,0,0,100,0.00,40.00,9,5,0,0.00
2013-3-19,52,38,27,-100,-100,-100,0,0,100,0.00,40.00,7,3,0,0.00
2013-3-20,46,41,31,-100,-100,-100,0,0,100,0.00,40.00,20,12,0,0.00
2013-3-21,39,32,27,-100,-100,-100,0,0,100,0.00,40.00,15,10,0,0.00
2013-3-22,37,30,24,-100,-100,-100,0,0,100,0.00,40.00,12,6,0,0.00
2013-3-23,43,29,22,-100,-100,-100,0,0,100,0.00,40.00,6,3,0,0.00
2013-3-24,46,34,22,-100,-100,-100,0,0,100,0.00,40.00,6,3,0,0.00
2013-3-25,50,40,29,-100,-100,-100,0,0,100,0.00,40.00,6,3,0,0.00
2013-3-26,48,42,35,-100,-100,-100,0,0,100,0.00,40.00,6,3,0,0.00
2013-3-27,54,42,29,-100,-100,-100,0,0,100,0.00,40.00,10,4,0,0.00
2013-3-28,55,45,38,-100,-100,-100,0,0,100,0.00,40.00,7,3,0,0.00
2013-3-29,59,46,37,-100,-100,-100,0,0,100,0.00,40.00,8,3,0,0.00
2013-3-30,68,49,32,-100,-100,-100,0,0,100,0.00,40.00,7,4,0,0.00
2013-3-31,64,50,33,-100,-100,-100,0,0,100,0.00,40.00,7,4,0,0.00
2013-4-1,60,50,40,-100,-100,-100,0,0,100,0.00,40.00,8,4,0,0.00
2013-4-2,62,48,35,-100,-100,-100,0,0,100,0.00,40.00,7,4,0,0.00
2013-4-3,65,48,31,-100,-100,-100,0,0,100,0.00,40.00,9,4,0,0.00
2013-4-4,60,51,45,-100,-100,-100,0,0,100,0.00,40.00,17,8,0,0.00
2013-4-5,52,45,41,-100,-100,-100,0,0,100,0.00,40.00,15,10,0,0.00
2013-4-6,47,42,39,-100,-100,-100,0,0,100,0.00,40.00,14,9,0,0.00
2013-4-8,44,40,29,-100,-100,-100,0,0,100,0.00,40.00,9,7,0,0.00
2013-4-9,57,40,23,-100,-100,-100,0,0,100,0.00,40.00,7,4,0,0.00
2013-4-10,55,49,38,-100,-100,-100,0,0,100,0.00,40.00,18,10,0,0.00
2013-4-11,53,40,26,-100,-100,-100,0,0,100,0.00,40.00,7,4,0,0.00
2013-4-12,60,43,24,-100,-100,-100,0,0,100,0.00,40.00,21,9,0,0.00
2013-4-13,46,42,34,-100,-100,-100,0,0,100,0.00,40.00,12,8,0,0.00
2013-4-15,38,34,30,-100,-100,-100,0,0,100,0.00,40.00,12,6,0,0.00
2013-4-16,41,34,28,-100,-100,-100,0,0,100,0.00,40.00,9,5,0,0.00
2013-4-17,48,36,23,-100,-100,-100,0,0,100,0.00,40.00,8,4,0,0.00
2013-4-18,58,43,27,-100,-100,-100,0,0,100,0.00,40.00,8,4,0,0.00
2013-4-19,54,48,39,-100,-100,-100,0,0,100,0.00,40.00,18,12,0,0.00
2013-4-20,57,44,35,-100,-100,-100,0,0,100,0.00,40.00,9,6,0,0.00
2013-4-21,57,44,29,-100,-100,-100,0,0,100,0.00,40.00,15,5,0,0.00
2013-4-22,52,43,36,-100,-100,-100,0,0,100,0.00,40.00,9,6,0,0.00
2013-4-23,61,42,21,-100,-100,-100,0,0,100,0.00,40.00,10,5,0,0.00
2013-4-24,66,46,24,-100,-100,-100,0,0,100,0.00,40.00,8,4,0,0.00
2013-4-25,70,53,36,-100,-100,-100,0,0,100,0.00,40.00,10,6,0,0.00
2013-4-26,75,58,38,-100,-100,-100,0,0,100,0.00,40.00,12,5,0,0.00
2013-4-27,69,56,37,-100,-100,-100,0,0,100,0.00,40.00,13,8,0,0.00
2013-4-28,61,53,40,-100,-100,-100,0,0,100,0.00,40.00,9,6,0,0.00
2013-4-29,55,49,36,-100,-100,-100,0,0,100,0.00,40.00,18,12,0,0.00
2013-4-30,49,39,26,-100,-100,-100,0,0,100,0.00,40.00,10,6,0,0.00
2013-5-1,60,42,20,-100,-100,-100,0,0,100,0.00,40.00,8,4,0,0.00
2013-5-2,72,53,29,-100,-100,-100,0,0,100,0.00,40.00,10,5,0,0.00
2013-5-3,68,53,35,-100,-100,-100,0,0,100,0.00,40.00,10,5,0,0.00
2013-5-4,66,52,33,-100,-100,-100,0,0,100,0.00,40.00,13,7,0,0.00
2013-5-5,71,52,34,-100,-100,-100,0,0,100,0.00,40.00,13,6,0,0.00
2013-5-6,75,58,42,-100,-100,-100,0,0,100,0.00,40.00,8,4,0,0.00
2013-5-7,75,62,49,-100,-100,-100,0,0,100,0.00,40.00,12,7,0,0.00
2013-5-8,77,61,48,-100,-100,-100,0,0,100,0.00,40.00,15,7,0,0.00
2013-5-9,78,61,49,-100,-100,-100,0,0,100,0.00,40.00,13,6,0,0.00
2013-5-10,80,60,53,-100,-100,-100,0,0,100,0.00,40.00,7,6,0,0.00
2013-5-11,83,64,54,-100,-100,-100,0,0,100,0.00,40.00,10,5,0,0.00
2013-5-12,79,64,54,-100,-100,-100,0,0,100,0.00,40.00,9,4,0,0.00
2013-5-13,68,58,44,-100,-100,-100,0,0,100,0.00,40.00,18,8,0,0.00
2013-5-14,65,49,32,-100,-100,-100,0,0,100,0.00,40.00,8,4,0,0.00
2013-5-15,61,48,39,-100,-100,-100,0,0,100,0.00,40.00,8,4,0,0.00
2013-5-16,55,44,37,-100,-100,-100,0,0,100,0.00,40.00,13,4,0,0.00
2013-5-17,56,48,42,-100,-100,-100,0,0,100,0.00,40.00,7,4,0,0.00
2013-5-18,55,45,32,-100,-100,-100,0,0,100,0.00,40.00,12,5,0,0.00
2013-5-19,61,48,35,-100,-100,-100,0,0,100,0.00,40.00,8,5,0,0.00
2013-5-20,73,55,32,-100,-100,-100,0,0,100,0.00,40.00,8,4,0,0.00
2013-5-21,55,47,35,-100,-100,-100,0,0,100,0.00,40.00,18,12,0,0.00
2013-5-22,44,38,32,-100,-100,-100,0,0,100,0.00,40.00,16,12,0,0.00
2013-5-23,53,44,35,-100,-100,-100,0,0,100,0.00,40.00,10,7,0,0.00
2013-5-24,55,46,39,-100,-100,-100,0,0,100,0.00,40.00,13,8,0,0.00
2013-5-25,62,48,29,-100,-100,-100,0,0,100,0.00,40.00,8,4,0,0.00
2013-5-26,59,50,44,-100,-100,-100,0,0,100,0.00,40.00,12,6,0,0.00
2013-5-27,55,49,42,-100,-100,-100,0,0,100,0.00,40.00,16,8,0,0.00
2013-5-28,61,52,44,-100,-100,-100,0,0,100,0.00,40.00,14,10,0,0.00
2013-5-29,56,50,45,-100,-100,-100,0,0,100,0.00,40.00,21,11,0,0.00
2013-5-30,58,48,33,-100,-100,-100,0,0,100,0.00,40.00,8,5,0,0.00
2013-5-31,69,49,29,-100,-100,-100,0,0,100,0.00,40.00,7,4,0,0.00
2013-6-1,74,58,37,-100,-100,-100,0,0,100,0.00,40.00,9,5,0,0.00
2013-6-2,70,56,40,-100,-100,-100,0,0,100,0.00,40.00,9,5,0,0.00
2013-6-3,74,58,35,-100,-100,-100,0,0,100,0.00,40.00,7,4,0,0.00
2013-6-4,78,61,39,-100,-100,-100,0,0,100,0.00,40.00,7,4,0,0.00
2013-6-5,84,69,44,-100,-100,-100,0,0,100,0.00,40.00,8,5,0,0.00
2013-6-6,85,69,49,-100,-100,-100,0,0,100,0.00,40.00,8,5,0,0.00
2013-6-7,83,65,49,-100,-100,-100,0,0,100,0.00,40.00,10,4,0,0.00
2013-6-8,85,69,45,-100,-100,-100,0,0,100,0.00,40.00,9,5,0,0.00
2013-6-9,82,65,47,-100,-100,-100,0,0,100,0.00,40.00,9,5,0,0.00
2013-6-10,76,58,36,-100,-100,-100,0,0,100,0.00,40.00,9,4,0,0.00
2013-6-11,62,52,41,-100,-100,-100,0,0,100,0.00,40.00,10,6,0,0.00
2013-6-12,61,49,32,-100,-100,-100,0,0,100,0.00,40.00,9,5,0,0.00
2013-6-13,55,45,31,-100,-100,-100,0,0,100,0.00,40.00,10,4,0,0.00
2013-6-14,69,52,33,-100,-100,-100,0,0,100,0.00,40.00,6,4,0,0.00
2013-6-15,79,59,36,-100,-100,-100,0,0,100,0.00,40.00,9,4,0,0.00
2013-6-16,77,62,47,-100,-100,-100,0,0,100,0.00,40.00,9,5,0,0.00
2013-6-17,74,55,43,-100,-100,-100,0,0,100,0.00,40.00,10,4,0,0.00
2013-6-18,57,52,47,-100,-100,-100,0,0,100,0.00,40.00,9,6,0,0.00
2013-6-19,55,48,42,-100,-100,-100,0,0,100,0.00,40.00,8,5,0,0.00
2013-6-20,54,45,40,-100,-100,-100,0,0,100,0.00,40.00,9,6,0,0.00
2013-6-22,74,66,50,-100,-100,-100,0,0,100,0.00,40.00,6,5,0,0.00
2013-6-23,62,57,53,-100,-100,-100,0,0,100,0.00,40.00,6,3,0,0.00
2013-6-24,59,54,50,-100,-100,-100,0,0,100,0.00,40.00,9,6,0,0.00
2013-6-25,61,56,51,-100,-100,-100,0,0,100,0.00,40.00,13,6,0,0.00
2013-6-26,64,57,50,-100,-100,-100,0,0,100,0.00,40.00,7,4,0,0.00
2013-6-27,83,64,45,-100,-100,-100,0,0,100,0.00,40.00,10,4,0,0.00
2013-6-28,88,73,53,-100,-100,-100,0,0,100,0.00,40.00,8,5,0,0.00
2013-6-29,85,74,58,-100,-100,-100,0,0,100,0.00,40.00,8,5,0,0.00
2013-6-30,93,76,54,-100,-100,-100,0,0,100,0.00,40.00,9,5,0,0.00
2013-7-1,95,81,66,-100,-100,-100,0,0,100,0.00,40.00,9,5,0,0.00
2013-7-2,98,79,64,-100,-100,-100,0,0,100,0.00,40.00,9,4,0,0.00
2013-7-3,90,77,61,-100,-100,-100,0,0,100,0.00,40.00,10,5,0,0.00
2013-7-4,81,69,53,-100,-100,-100,0,0,100,0.00,40.00,9,5,0,0.00
2013-7-5,77,62,44,-100,-100,-100,0,0,100,0.00,40.00,8,4,0,0.00
2013-7-6,81,65,41,-100,-100,-100,0,0,100,0.00,40.00,8,5,0,0.00
2013-7-7,84,68,47,-100,-100,-100,0,0,100,0.00,40.00,9,4,0,0.00
2013-7-8,80,60,46,-100,-100,-100,0,0,100,0.00,40.00,7,4,0,0.00
2013-7-9,92,74,50,-100,-100,-100,0,0,100,0.00,40.00,9,4,0,0.00
2013-7-10,76,26,56,-100,-100,-100,0,0,100,0.00,40.00,18,5,0,0.00
2013-7-11,-200,0,200,-100,-100,-100,0,0,100,0.00,40.00,9,4,0,0.00
2013-7-12,76,39,57,-100,-100,-100,0,0,100,0.00,40.00,10,5,0,0.00
2013-7-13,77,62,39,-100,-100,-100,0,0,100,0.00,40.00,7,5,0,0.00
2013-7-14,87,68,44,-100,-100,-100,0,0,100,0.00,40.00,9,5,0,0.00
2013-7-15,86,70,49,-100,-100,-100,0,0,100,0.00,40.00,8,5,0,0.00
2013-7-16,81,69,62,-100,-100,-100,0,0,100,0.00,40.00,8,6,0,0.00
2013-7-17,86,71,59,-100,-100,-100,0,0,100,0.00,40.00,13,7,0,0.00
2013-7-18,90,75,51,-100,-100,-100,0,0,100,0.00,40.00,8,5,0,0.00
2013-7-19,91,77,53,-100,-100,-100,0,0,100,0.00,40.00,8,5,0,0.00
2013-7-20,92,76,53,-100,-100,-100,0,0,100,0.00,40.00,9,5,0,0.00
2013-7-21,94,77,53,-100,-100,-100,0,0,100,0.00,40.00,9,6,0,0.00
2013-7-22,92,73,52,-100,-100,-100,0,0,100,0.00,40.00,8,5,0,0.00
2013-7-23,94,79,55,-100,-100,-100,0,0,100,0.00,40.00,7,5,0,0.00
2013-7-24,89,70,60,-100,-100,-100,0,0,100,0.00,40.00,6,3,0,0.00
2013-7-25,94,75,58,-100,-100,-100,0,0,100,0.00,40.00,9,4,0,0.00
2013-7-26,93,74,59,-100,-100,-100,0,0,100,0.00,40.00,10,5,0,0.00
2013-7-27,85,72,50,-100,-100,-100,0,0,100,0.00,40.00,9,5,0,0.00
2013-7-28,81,65,45,-100,-100,-100,0,0,100,0.00,40.00,9,5,0,0.00
2013-7-29,82,64,46,-100,-100,-100,0,0,100,0.00,40.00,8,4,0,0.00
2013-7-30,85,71,51,-100,-100,-100,0,0,100,0.00,40.00,8,5,0,0.00
2013-7-31,77,64,55,-100,-100,-100,0,0,100,0.00,40.00,6,3,0,0.00
2013-8-1,70,58,53,-100,-100,-100,0,0,100,0.00,40.00,8,6,0,0.00
2013-8-2,73,56,44,-100,-100,-100,0,0,100,0.00,40.00,8,5,0,0.00
2013-8-3,81,64,42,-100,-100,-100,0,0,100,0.00,40.00,7,4,0,0.00
2013-8-4,86,70,48,-100,-100,-100,0,0,100,0.00,40.00,9,5,0,0.00
2013-8-5,87,71,54,-100,-100,-100,0,0,100,0.00,40.00,10,5,0,0.00
2013-8-6,89,70,53,-100,-100,-100,0,0,100,0.00,40.00,8,4,0,0.00
2013-8-7,81,68,53,-100,-100,-100,0,0,100,0.00,40.00,17,6,0,0.00
2013-8-8,82,67,54,-100,-100,-100,0,0,100,0.00,40.00,8,4,0,0.00
2013-8-9,73,66,57,-100,-100,-100,0,0,100,0.00,40.00,16,5,0,0.00
2013-8-10,74,60,48,-100,-100,-100,0,0,100,0.00,40.00,9,4,0,0.00
2013-8-11,75,62,51,-100,-100,-100,0,0,100,0.00,40.00,13,7,0,0.00